Aviation Digital Data Service (ADDS)

Output produced by METARs form (1124 UTC 18 June 2019)
found at http://www.aviationweather.gov/metar/data/
 
METAR text: ZGKL 181100Z 13002MPS 9999 FEW030TCU FEW060 30/25 Q1005 NOSIG
Conditions at: ZGKL (GUILIN , CN) observed 1100 UTC 18 June 2019
Temperature: 30.0°C (86°F)
Dewpoint: 25.0°C (77°F) [RH = 75%]
Pressure (altimeter): 29.68 inches Hg (1005.0 mb)
Winds: from the SE (130 degrees) at 5 MPH (4 knots; 2.1 m/s)
Visibility: 6 or more miles (10+ km)
Ceiling: at least 12,000 feet AGL
Clouds: few clouds at 3000 feet AGL
few clouds at 6000 feet AGL
Weather: no significant weather observed at this time

METAR text: ZGKL 181000Z 11003MPS 9999 SCT060 30/25 Q1005 NOSIG
Conditions at: ZGKL (GUILIN , CN) observed 1000 UTC 18 June 2019
Temperature: 30.0°C (86°F)
Dewpoint: 25.0°C (77°F) [RH = 75%]
Pressure (altimeter): 29.68 inches Hg (1005.0 mb)
Winds: from the ESE (110 degrees) at 7 MPH (6 knots; 3.1 m/s)
Visibility: 6 or more miles (10+ km)
Ceiling: at least 12,000 feet AGL
Clouds: scattered clouds at 6000 feet AGL
Weather: no significant weather observed at this time

METAR text: ZGKL 180900Z 07003MPS 040V140 9999 FEW060 31/26 Q1005 NOSIG
Conditions at: ZGKL (GUILIN , CN) observed 0900 UTC 18 June 2019
Temperature: 31.0°C (88°F)
Dewpoint: 26.0°C (79°F) [RH = 75%]
Pressure (altimeter): 29.68 inches Hg (1005.0 mb)
Winds: from the ENE (70 degrees) at 7 MPH (6 knots; 3.1 m/s)
Visibility: 6 or more miles (10+ km)
Ceiling: at least 12,000 feet AGL
Clouds: few clouds at 6000 feet AGL
Weather: no significant weather observed at this time

METAR text: ZGKL 180800Z VRB02MPS 9999 SCT043 29/25 Q1005 NOSIG
Conditions at: ZGKL (GUILIN , CN) observed 0800 UTC 18 June 2019
Temperature: 29.0°C (84°F)
Dewpoint: 25.0°C (77°F) [RH = 79%]
Pressure (altimeter): 29.68 inches Hg (1005.0 mb)
Winds: variable direction winds at 5 MPH (4 knots; 2.1 m/s)
Visibility: 6 or more miles (10+ km)
Ceiling: at least 12,000 feet AGL
Clouds: scattered clouds at 4300 feet AGL
Weather: no significant weather observed at this time

METAR text: ZGKL 180700Z 10002MPS 070V140 9999 SCT050 FEW050CB 29/25 Q1006 NOSIG
Conditions at: ZGKL (GUILIN , CN) observed 0700 UTC 18 June 2019
Temperature: 29.0°C (84°F)
Dewpoint: 25.0°C (77°F) [RH = 79%]
Pressure (altimeter): 29.70 inches Hg (1006.0 mb)
Winds: from the E (100 degrees) at 5 MPH (4 knots; 2.1 m/s)
Visibility: 6 or more miles (10+ km)
Ceiling: at least 12,000 feet AGL
Clouds: scattered clouds at 5000 feet AGL
few clouds at 5000 feet AGL
Weather: no significant weather observed at this time

METAR text: ZGKL 180600Z VRB01MPS 9999 BKN036 27/25 Q1006 RETS NOSIG
Conditions at: ZGKL (GUILIN , CN) observed 0600 UTC 18 June 2019
Temperature: 27.0°C (81°F)
Dewpoint: 25.0°C (77°F) [RH = 89%]
Pressure (altimeter): 29.70 inches Hg (1006.0 mb)
Winds: variable direction winds at 2 MPH (2 knots; 1.0 m/s)
Visibility: 6 or more miles (10+ km)
Ceiling: 3600 feet AGL
Clouds: broken clouds at 3600 feet AGL
Weather: no significant weather observed at this time

METAR text: ZGKL 180500Z 17004MPS 9999 FEW023 SCT040 FEW040CB BKN056 30/25 Q1007 TEMPO FM0510 TSRA
Conditions at: ZGKL (GUILIN , CN) observed 0500 UTC 18 June 2019
Temperature: 30.0°C (86°F)
Dewpoint: 25.0°C (77°F) [RH = 75%]
Pressure (altimeter): 29.73 inches Hg (1007.0 mb)
Winds: from the S (170 degrees) at 9 MPH (8 knots; 4.1 m/s)
Visibility: 6 or more miles (10+ km)
Ceiling: 5600 feet AGL
Clouds: few clouds at 2300 feet AGL
scattered clouds at 4000 feet AGL
few clouds at 4000 feet AGL
broken clouds at 5600 feet AGL
Weather: no significant weather observed at this time

METAR text: ZGKL 180400Z 14003MPS 050V210 9999 FEW016 SCT033 FEW033TCU 30/26 Q1007 TEMPO FM0440 SHRA
Conditions at: ZGKL (GUILIN , CN) observed 0400 UTC 18 June 2019
Temperature: 30.0°C (86°F)
Dewpoint: 26.0°C (79°F) [RH = 79%]
Pressure (altimeter): 29.73 inches Hg (1007.0 mb)
Winds: from the SE (140 degrees) at 7 MPH (6 knots; 3.1 m/s)
Visibility: 6 or more miles (10+ km)
Ceiling: at least 12,000 feet AGL
Clouds: few clouds at 1600 feet AGL
scattered clouds at 3300 feet AGL
few clouds at 3300 feet AGL
Weather: no significant weather observed at this time

METAR text: ZGKL 180300Z 14002MPS 5000 BR FEW013 SCT033 BKN066 28/26 Q1008 NOSIG
Conditions at: ZGKL (GUILIN , CN) observed 0300 UTC 18 June 2019
Temperature: 28.0°C (82°F)
Dewpoint: 26.0°C (79°F) [RH = 89%]
Pressure (altimeter): 29.76 inches Hg (1008.0 mb)
Winds: from the SE (140 degrees) at 5 MPH (4 knots; 2.1 m/s)
Visibility: 3 miles ( 5 km)
Ceiling: 6600 feet AGL
Clouds: few clouds at 1300 feet AGL
scattered clouds at 3300 feet AGL
broken clouds at 6600 feet AGL
Weather: BR  (mist)

METAR text: ZGKL 180200Z 14003MPS 090V180 4000 BR FEW011 BKN033 BKN066 28/26 Q1008 NOSIG
Conditions at: ZGKL (GUILIN , CN) observed 0200 UTC 18 June 2019
Temperature: 28.0°C (82°F)
Dewpoint: 26.0°C (79°F) [RH = 89%]
Pressure (altimeter): 29.76 inches Hg (1008.0 mb)
Winds: from the SE (140 degrees) at 7 MPH (6 knots; 3.1 m/s)
Visibility: 2.49 miles (4.01 km)
Ceiling: 3300 feet AGL
Clouds: few clouds at 1100 feet AGL
broken clouds at 3300 feet AGL
broken clouds at 6600 feet AGL
Weather: BR  (mist)

METAR text: ZGKL 180100Z VRB01MPS 4000 BR SCT040 BKN073 28/25 Q1008 NOSIG
Conditions at: ZGKL (GUILIN , CN) observed 0100 UTC 18 June 2019
Temperature: 28.0°C (82°F)
Dewpoint: 25.0°C (77°F) [RH = 84%]
Pressure (altimeter): 29.76 inches Hg (1008.0 mb)
Winds: variable direction winds at 2 MPH (2 knots; 1.0 m/s)
Visibility: 2.49 miles (4.01 km)
Ceiling: 7300 feet AGL
Clouds: scattered clouds at 4000 feet AGL
broken clouds at 7300 feet AGL
Weather: BR  (mist)

METAR text: ZGKL 180000Z VRB01MPS 3500 BR FEW005 SCT033 OVC073 26/25 Q1007 NOSIG
Conditions at: ZGKL (GUILIN , CN) observed 0000 UTC 18 June 2019
Temperature: 26.0°C (79°F)
Dewpoint: 25.0°C (77°F) [RH = 94%]
Pressure (altimeter): 29.73 inches Hg (1007.0 mb)
Winds: variable direction winds at 2 MPH (2 knots; 1.0 m/s)
Visibility: 2.17 miles (3.49 km)
Ceiling: 7300 feet AGL
Clouds: few clouds at 500 feet AGL
scattered clouds at 3300 feet AGL
overcast cloud deck at 7300 feet AGL
Weather: BR  (mist)

METAR text: ZGKL 172300Z 00000MPS 3500 BR SCT033 OVC066 25/25 Q1007 NOSIG
Conditions at: ZGKL (GUILIN , CN) observed 2300 UTC 17 June 2019
Temperature: 25.0°C (77°F)
Dewpoint: 25.0°C (77°F) [RH = 100%]
Pressure (altimeter): 29.73 inches Hg (1007.0 mb)
Winds: calm
Visibility: 2.17 miles (3.49 km)
Ceiling: 6600 feet AGL
Clouds: scattered clouds at 3300 feet AGL
overcast cloud deck at 6600 feet AGL
Weather: BR  (mist)

METAR text: ZGKL 172200Z VRB01MPS 2200 BR SCT033 OVC066 25/25 Q1006 BECMG FM0000 3500
Conditions at: ZGKL (GUILIN , CN) observed 2200 UTC 17 June 2019
Temperature: 25.0°C (77°F)
Dewpoint: 25.0°C (77°F) [RH = 100%]
Pressure (altimeter): 29.70 inches Hg (1006.0 mb)
Winds: variable direction winds at 2 MPH (2 knots; 1.0 m/s)
Visibility: 1.37 miles (2.20 km)
Ceiling: 6600 feet AGL
Clouds: scattered clouds at 3300 feet AGL
overcast cloud deck at 6600 feet AGL
Weather: BR  (mist)

METAR text: ZGKL 172100Z 10001MPS 4000 BR SCT033 OVC066 25/25 Q1006 NOSIG
Conditions at: ZGKL (GUILIN , CN) observed 2100 UTC 17 June 2019
Temperature: 25.0°C (77°F)
Dewpoint: 25.0°C (77°F) [RH = 100%]
Pressure (altimeter): 29.70 inches Hg (1006.0 mb)
Winds: from the E (100 degrees) at 2 MPH (2 knots; 1.0 m/s)
Visibility: 2.49 miles (4.01 km)
Ceiling: 6600 feet AGL
Clouds: scattered clouds at 3300 feet AGL
overcast cloud deck at 6600 feet AGL
Weather: BR  (mist)

METAR text: ZGKL 172000Z 00000MPS 4000 BR SCT033 OVC066 25/25 Q1006 NOSIG
Conditions at: ZGKL (GUILIN , CN) observed 2000 UTC 17 June 2019
Temperature: 25.0°C (77°F)
Dewpoint: 25.0°C (77°F) [RH = 100%]
Pressure (altimeter): 29.70 inches Hg (1006.0 mb)
Winds: calm
Visibility: 2.49 miles (4.01 km)
Ceiling: 6600 feet AGL
Clouds: scattered clouds at 3300 feet AGL
overcast cloud deck at 6600 feet AGL
Weather: BR  (mist)

METAR text: ZGKL 171900Z VRB01MPS 4000 BR SCT033 BKN066 25/25 Q1006 NOSIG
Conditions at: ZGKL (GUILIN , CN) observed 1900 UTC 17 June 2019
Temperature: 25.0°C (77°F)
Dewpoint: 25.0°C (77°F) [RH = 100%]
Pressure (altimeter): 29.70 inches Hg (1006.0 mb)
Winds: variable direction winds at 2 MPH (2 knots; 1.0 m/s)
Visibility: 2.49 miles (4.01 km)
Ceiling: 6600 feet AGL
Clouds: scattered clouds at 3300 feet AGL
broken clouds at 6600 feet AGL
Weather: BR  (mist)

METAR text: ZGKL 171800Z 00000MPS 5000 BR BKN040 BKN066 25/25 Q1006 NOSIG
Conditions at: ZGKL (GUILIN , CN) observed 1800 UTC 17 June 2019
Temperature: 25.0°C (77°F)
Dewpoint: 25.0°C (77°F) [RH = 100%]
Pressure (altimeter): 29.70 inches Hg (1006.0 mb)
Winds: calm
Visibility: 3 miles ( 5 km)
Ceiling: 4000 feet AGL
Clouds: broken clouds at 4000 feet AGL
broken clouds at 6600 feet AGL
Weather: BR  (mist)

METAR text: ZGKL 171700Z 29001MPS 4500 BR BKN033 BKN066 25/25 Q1007 NOSIG
Conditions at: ZGKL (GUILIN , CN) observed 1700 UTC 17 June 2019
Temperature: 25.0°C (77°F)
Dewpoint: 25.0°C (77°F) [RH = 100%]
Pressure (altimeter): 29.73 inches Hg (1007.0 mb)
Winds: from the WNW (290 degrees) at 2 MPH (2 knots; 1.0 m/s)
Visibility: 2.80 miles (4.51 km)
Ceiling: 3300 feet AGL
Clouds: broken clouds at 3300 feet AGL
broken clouds at 6600 feet AGL
Weather: BR  (mist)

METAR text: ZGKL 171600Z 33001MPS 5000 BR SCT043 25/25 Q1007 NOSIG
Conditions at: ZGKL (GUILIN , CN) observed 1600 UTC 17 June 2019
Temperature: 25.0°C (77°F)
Dewpoint: 25.0°C (77°F) [RH = 100%]
Pressure (altimeter): 29.73 inches Hg (1007.0 mb)
Winds: from the NNW (330 degrees) at 2 MPH (2 knots; 1.0 m/s)
Visibility: 3 miles ( 5 km)
Ceiling: at least 12,000 feet AGL
Clouds: scattered clouds at 4300 feet AGL
Weather: BR  (mist)

METAR text: ZGKL 171500Z 32002MPS 280V360 5000 BR NSC 25/25 Q1007 NOSIG
Conditions at: ZGKL (GUILIN , CN) observed 1500 UTC 17 June 2019
Temperature: 25.0°C (77°F)
Dewpoint: 25.0°C (77°F) [RH = 100%]
Pressure (altimeter): 29.73 inches Hg (1007.0 mb)
Winds: from the NW (320 degrees) at 5 MPH (4 knots; 2.1 m/s)
Visibility: 3 miles ( 5 km)
Ceiling: at least 12,000 feet AGL
Clouds: sky clear below 12,000 feet AGL
Weather: BR  (mist)

METAR text: ZGKL 171400Z VRB02MPS 7000 SCT040 26/25 Q1007 NOSIG
Conditions at: ZGKL (GUILIN , CN) observed 1400 UTC 17 June 2019
Temperature: 26.0°C (79°F)
Dewpoint: 25.0°C (77°F) [RH = 94%]
Pressure (altimeter): 29.73 inches Hg (1007.0 mb)
Winds: variable direction winds at 5 MPH (4 knots; 2.1 m/s)
Visibility: 4 miles ( 7 km)
Ceiling: at least 12,000 feet AGL
Clouds: scattered clouds at 4000 feet AGL
Weather: no significant weather observed at this time

METAR text: ZGKL 171300Z VRB02MPS 7000 SCT050 26/25 Q1007 NOSIG
Conditions at: ZGKL (GUILIN , CN) observed 1300 UTC 17 June 2019
Temperature: 26.0°C (79°F)
Dewpoint: 25.0°C (77°F) [RH = 94%]
Pressure (altimeter): 29.73 inches Hg (1007.0 mb)
Winds: variable direction winds at 5 MPH (4 knots; 2.1 m/s)
Visibility: 4 miles ( 7 km)
Ceiling: at least 12,000 feet AGL
Clouds: scattered clouds at 5000 feet AGL
Weather: no significant weather observed at this time

METAR text: ZGKL 171200Z 32002MPS 300V100 8000 -RA FEW013 SCT033 26/25 Q1006 NOSIG
Conditions at: ZGKL (GUILIN , CN) observed 1200 UTC 17 June 2019
Temperature: 26.0°C (79°F)
Dewpoint: 25.0°C (77°F) [RH = 94%]
Pressure (altimeter): 29.70 inches Hg (1006.0 mb)
Winds: from the NW (320 degrees) at 5 MPH (4 knots; 2.1 m/s)
Visibility: 5 miles ( 8 km)
Ceiling: at least 12,000 feet AGL
Clouds: few clouds at 1300 feet AGL
scattered clouds at 3300 feet AGL
Weather: -RA  (light rain)

METAR text: ZGKL 171100Z VRB01MPS 9999 FEW020 SCT030 OVC060 26/25 Q1006 NOSIG
Conditions at: ZGKL (GUILIN , CN) observed 1100 UTC 17 June 2019
Temperature: 26.0°C (79°F)
Dewpoint: 25.0°C (77°F) [RH = 94%]
Pressure (altimeter): 29.70 inches Hg (1006.0 mb)
Winds: variable direction winds at 2 MPH (2 knots; 1.0 m/s)
Visibility: 6 or more miles (10+ km)
Ceiling: 6000 feet AGL
Clouds: few clouds at 2000 feet AGL
scattered clouds at 3000 feet AGL
overcast cloud deck at 6000 feet AGL
Weather: no significant weather observed at this time

METAR text: ZGKL 171000Z 33002MPS 290V350 9999 -DZ FEW020 BKN030 OVC053 27/26 Q1005 NOSIG
Conditions at: ZGKL (GUILIN , CN) observed 1000 UTC 17 June 2019
Temperature: 27.0°C (81°F)
Dewpoint: 26.0°C (79°F) [RH = 94%]
Pressure (altimeter): 29.68 inches Hg (1005.0 mb)
Winds: from the NNW (330 degrees) at 5 MPH (4 knots; 2.1 m/s)
Visibility: 6 or more miles (10+ km)
Ceiling: 3000 feet AGL
Clouds: few clouds at 2000 feet AGL
broken clouds at 3000 feet AGL
overcast cloud deck at 5300 feet AGL
Weather: -DZ  (light drizzle)

METAR text: ZGKL 170900Z 22002MPS 180V280 9999 -SHRA FEW020 SCT033 FEW033CB BKN056 27/26 Q1004 NOSIG
Conditions at: ZGKL (GUILIN , CN) observed 0900 UTC 17 June 2019
Temperature: 27.0°C (81°F)
Dewpoint: 26.0°C (79°F) [RH = 94%]
Pressure (altimeter): 29.65 inches Hg (1004.0 mb)
Winds: from the SW (220 degrees) at 5 MPH (4 knots; 2.1 m/s)
Visibility: 6 or more miles (10+ km)
Ceiling: 5600 feet AGL
Clouds: few clouds at 2000 feet AGL
scattered clouds at 3300 feet AGL
few clouds at 3300 feet AGL
broken clouds at 5600 feet AGL
Weather: -SHRA  (light rain showers)

METAR text: ZGKL 170800Z 13004MPS 090V180 9999 FEW020 BKN030 OVC053 30/25 Q1004 TEMPO TL0900 SHRA
Conditions at: ZGKL (GUILIN , CN) observed 0800 UTC 17 June 2019
Temperature: 30.0°C (86°F)
Dewpoint: 25.0°C (77°F) [RH = 75%]
Pressure (altimeter): 29.65 inches Hg (1004.0 mb)
Winds: from the SE (130 degrees) at 9 MPH (8 knots; 4.1 m/s)
Visibility: 6 or more miles (10+ km)
Ceiling: 3000 feet AGL
Clouds: few clouds at 2000 feet AGL
broken clouds at 3000 feet AGL
overcast cloud deck at 5300 feet AGL
Weather: no significant weather observed at this time

METAR text: ZGKL 170700Z VRB02MPS 9999 FEW020 SCT033 BKN060 30/26 Q1005 NOSIG
Conditions at: ZGKL (GUILIN , CN) observed 0700 UTC 17 June 2019
Temperature: 30.0°C (86°F)
Dewpoint: 26.0°C (79°F) [RH = 79%]
Pressure (altimeter): 29.68 inches Hg (1005.0 mb)
Winds: variable direction winds at 5 MPH (4 knots; 2.1 m/s)
Visibility: 6 or more miles (10+ km)
Ceiling: 6000 feet AGL
Clouds: few clouds at 2000 feet AGL
scattered clouds at 3300 feet AGL
broken clouds at 6000 feet AGL
Weather: no significant weather observed at this time

METAR text: ZGKL 170600Z 31002MPS 270V340 9999 FEW020 SCT033 OVC053 29/25 Q1005 NOSIG
Conditions at: ZGKL (GUILIN , CN) observed 0600 UTC 17 June 2019
Temperature: 29.0°C (84°F)
Dewpoint: 25.0°C (77°F) [RH = 79%]
Pressure (altimeter): 29.68 inches Hg (1005.0 mb)
Winds: from the NW (310 degrees) at 5 MPH (4 knots; 2.1 m/s)
Visibility: 6 or more miles (10+ km)
Ceiling: 5300 feet AGL
Clouds: few clouds at 2000 feet AGL
scattered clouds at 3300 feet AGL
overcast cloud deck at 5300 feet AGL
Weather: no significant weather observed at this time

METAR text: ZGKL 170500Z VRB02MPS 9999 FEW020 SCT030 OVC053 30/26 Q1006 NOSIG
Conditions at: ZGKL (GUILIN , CN) observed 0500 UTC 17 June 2019
Temperature: 30.0°C (86°F)
Dewpoint: 26.0°C (79°F) [RH = 79%]
Pressure (altimeter): 29.70 inches Hg (1006.0 mb)
Winds: variable direction winds at 5 MPH (4 knots; 2.1 m/s)
Visibility: 6 or more miles (10+ km)
Ceiling: 5300 feet AGL
Clouds: few clouds at 2000 feet AGL
scattered clouds at 3000 feet AGL
overcast cloud deck at 5300 feet AGL
Weather: no significant weather observed at this time

METAR text: ZGKL 170400Z 09003MPS 050V120 9999 FEW020 SCT033 OVC053 29/25 Q1006 NOSIG
Conditions at: ZGKL (GUILIN , CN) observed 0400 UTC 17 June 2019
Temperature: 29.0°C (84°F)
Dewpoint: 25.0°C (77°F) [RH = 79%]
Pressure (altimeter): 29.70 inches Hg (1006.0 mb)
Winds: from the E (90 degrees) at 7 MPH (6 knots; 3.1 m/s)
Visibility: 6 or more miles (10+ km)
Ceiling: 5300 feet AGL
Clouds: few clouds at 2000 feet AGL
scattered clouds at 3300 feet AGL
overcast cloud deck at 5300 feet AGL
Weather: no significant weather observed at this time

METAR text: ZGKL 170300Z VRB01MPS 9999 FEW016 BKN030 BKN053 29/25 Q1006 NOSIG
Conditions at: ZGKL (GUILIN , CN) observed 0300 UTC 17 June 2019
Temperature: 29.0°C (84°F)
Dewpoint: 25.0°C (77°F) [RH = 79%]
Pressure (altimeter): 29.70 inches Hg (1006.0 mb)
Winds: variable direction winds at 2 MPH (2 knots; 1.0 m/s)
Visibility: 6 or more miles (10+ km)
Ceiling: 3000 feet AGL
Clouds: few clouds at 1600 feet AGL
broken clouds at 3000 feet AGL
broken clouds at 5300 feet AGL
Weather: no significant weather observed at this time

METAR text: ZGKL 170200Z 13002MPS 060V160 7000 FEW013 SCT033 BKN056 28/25 Q1007 NOSIG
Conditions at: ZGKL (GUILIN , CN) observed 0200 UTC 17 June 2019
Temperature: 28.0°C (82°F)
Dewpoint: 25.0°C (77°F) [RH = 84%]
Pressure (altimeter): 29.73 inches Hg (1007.0 mb)
Winds: from the SE (130 degrees) at 5 MPH (4 knots; 2.1 m/s)
Visibility: 4 miles ( 7 km)
Ceiling: 5600 feet AGL
Clouds: few clouds at 1300 feet AGL
scattered clouds at 3300 feet AGL
broken clouds at 5600 feet AGL
Weather: no significant weather observed at this time

METAR text: ZGKL 170100Z VRB01MPS 7000 SCT026 BKN060 27/25 Q1006 NOSIG
Conditions at: ZGKL (GUILIN , CN) observed 0100 UTC 17 June 2019
Temperature: 27.0°C (81°F)
Dewpoint: 25.0°C (77°F) [RH = 89%]
Pressure (altimeter): 29.70 inches Hg (1006.0 mb)
Winds: variable direction winds at 2 MPH (2 knots; 1.0 m/s)
Visibility: 4 miles ( 7 km)
Ceiling: 6000 feet AGL
Clouds: scattered clouds at 2600 feet AGL
broken clouds at 6000 feet AGL
Weather: no significant weather observed at this time

METAR text: ZGKL 170000Z VRB01MPS 3000 BR SCT026 BKN050 25/25 Q1006 NOSIG
Conditions at: ZGKL (GUILIN , CN) observed 0000 UTC 17 June 2019
Temperature: 25.0°C (77°F)
Dewpoint: 25.0°C (77°F) [RH = 100%]
Pressure (altimeter): 29.70 inches Hg (1006.0 mb)
Winds: variable direction winds at 2 MPH (2 knots; 1.0 m/s)
Visibility: 1.86 miles (2.99 km)
Ceiling: 5000 feet AGL
Clouds: scattered clouds at 2600 feet AGL
broken clouds at 5000 feet AGL
Weather: BR  (mist)

Forecast for: ZGKL (GUILIN , CN)
Text: TAF ZGKL 180912Z 1812/1912 17003MPS 9999 SCT050 TX33/1908Z TN24/1823Z
Forecast period: 1200 UTC 18 June 2019 to 1200 UTC 19 June 2019
Forecast type: FROM: standard forecast or significant change
Winds: from the S (170 degrees) at 7 MPH (6 knots; 3.1 m/s)
Visibility: 6 or more miles 10+ km)
Ceiling: at least 12,000 feet AGL
Clouds: scattered clouds at 5000 feet AGL
Weather: no significant weather forecast for this period
Text: TEMPO 1906/1911 -TSRA FEW036CB SCT036
Forecast period: 0600 to 1100 UTC 19 June 2019
Forecast type: TEMPORARY: The following changes expected for less than half the time period
Visibility: missing
Ceiling: at least 12,000 feet AGL
Clouds: few clouds at 3600 feet AGL
scattered clouds at 3600 feet AGL
Weather: -TSRA  (light rain associated with thunderstorm(s))